createdAt,value
2017-09-23T00:02:35.276Z,94868.63
2017-09-23T00:17:35.261Z,94883.14
2017-09-23T00:32:35.236Z,94894.08
2017-09-23T00:47:34.611Z,94889.94
2017-09-23T01:02:34.582Z,94892.77
2017-09-23T01:17:34.604Z,94894.31
2017-09-23T01:32:34.653Z,94906.41
2017-09-23T01:47:35.053Z,94897.27
2017-09-23T02:02:34.946Z,94907.27
2017-09-23T02:17:34.924Z,94904.44
2017-09-23T02:32:34.915Z,94898.35
2017-09-23T02:47:35.452Z,94896.00
2017-09-23T03:02:35.540Z,94918.06
2017-09-23T03:17:35.291Z,94915.30
2017-09-23T03:32:35.347Z,94914.72
2017-09-23T03:47:34.719Z,94910.85
2017-09-23T04:02:34.617Z,94915.17
2017-09-23T04:17:36.612Z,94906.89
2017-09-23T04:32:37.277Z,94916.02
2017-09-23T04:47:35.018Z,94930.80
2017-09-23T05:02:35.015Z,94946.50
2017-09-23T05:17:34.862Z,94949.26
2017-09-23T05:32:34.904Z,94946.89
2017-09-23T05:47:35.305Z,94943.91
2017-09-23T06:02:35.422Z,94966.65
2017-09-23T06:17:35.260Z,94981.41
2017-09-23T06:32:35.150Z,94958.91
2017-09-23T06:47:34.671Z,94962.19
2017-09-23T07:02:34.693Z,94975.23
2017-09-23T07:17:34.564Z,94985.00
2017-09-23T07:32:36.517Z,94993.56
2017-09-23T07:47:34.915Z,95009.58
2017-09-23T08:02:34.930Z,95020.81
2017-09-23T08:17:34.921Z,95017.48
2017-09-23T08:32:34.874Z,95024.20
2017-09-23T08:47:35.264Z,95032.87
2017-09-23T09:02:35.752Z,95020.70
2017-09-23T09:17:35.216Z,95015.41
2017-09-23T09:32:35.220Z,95018.54
2017-09-23T09:47:34.621Z,95010.67
2017-09-23T10:02:34.644Z,95013.03
2017-09-23T10:17:34.579Z,94999.25
2017-09-23T10:32:34.527Z,95000.59
2017-09-23T10:47:35.049Z,94998.95
2017-09-23T11:02:34.948Z,95004.06
2017-09-23T11:17:34.847Z,94993.91
2017-09-23T11:32:34.824Z,94969.09
2017-09-23T11:47:35.238Z,94975.89
2017-09-23T12:02:35.210Z,94972.45
2017-09-23T12:17:35.143Z,94971.75
2017-09-23T12:32:35.141Z,94965.22
2017-09-23T12:47:36.549Z,94966.28
2017-09-23T13:02:34.511Z,94945.36
2017-09-23T13:17:34.494Z,94936.98
2017-09-23T13:32:34.507Z,94945.20
2017-09-23T13:47:34.797Z,94948.73
2017-09-23T14:02:34.852Z,94950.61
2017-09-23T14:17:34.838Z,94958.20
2017-09-23T14:32:34.758Z,94960.97
2017-09-23T14:47:35.158Z,94967.02
2017-09-23T15:02:35.096Z,94968.66
2017-09-23T15:17:35.130Z,94977.53
2017-09-23T15:32:35.078Z,94969.64
2017-09-23T15:47:34.465Z,94964.97
2017-09-23T16:02:34.426Z,94978.76
2017-09-23T16:17:34.458Z,94975.37
2017-09-23T16:32:34.456Z,94981.38
2017-09-23T16:47:34.809Z,94987.56
2017-09-23T17:02:34.741Z,95002.70
2017-09-23T17:17:34.729Z,95011.34
2017-09-23T17:32:34.239Z,95019.72
2017-09-23T17:47:35.101Z,95014.69
2017-09-23T18:02:35.088Z,95007.25
2017-09-23T18:17:35.139Z,95007.20
2017-09-23T18:32:35.028Z,95012.16
2017-09-23T18:47:34.420Z,95014.58
2017-09-23T19:02:34.456Z,95007.95
2017-09-23T19:17:34.452Z,95018.27
2017-09-23T19:32:34.363Z,95021.96
2017-09-23T19:47:34.732Z,95018.84
2017-09-23T20:02:34.738Z,95027.01
2017-09-23T20:17:34.716Z,95059.14
2017-09-23T20:32:34.655Z,95056.08
2017-09-23T20:47:35.082Z,95064.23
2017-09-23T21:02:36.047Z,95073.55
2017-09-23T21:17:34.977Z,95071.80
2017-09-23T21:32:34.871Z,95055.37
2017-09-23T21:47:36.371Z,95055.09
2017-09-23T22:02:34.423Z,95048.80
2017-09-23T22:17:34.279Z,95053.53
2017-09-23T22:32:34.309Z,95049.05
2017-09-23T22:47:34.641Z,95052.73
2017-09-23T23:02:34.615Z,95042.91
2017-09-23T23:17:36.583Z,95062.13
2017-09-23T23:32:34.526Z,95061.53
2017-09-23T23:47:34.922Z,95065.92
